Time;durP1;ratioP1;P1;durP2;ratioP2;P2;SDS_P1;SDS_P2;PMS_P1;PMS_P2;Temp;Humidity;BMP_temperature;BMP_pressure;BME280_temperature;BME280_humidity;BME280_pressure;Samples;Min_cycle;Max_cycle;Signal;HPM_P1;HPM_P2
2022/06/19 00:01:19;;;;;;;4.53;3.45;;;;;;;22.81;40.84;93516.75;4892858;29;20508;-92
2022/06/19 00:03:46;;;;;;;3.70;3.35;;;;;;;22.80;41.43;93520.78;4910000;29;20052;-92
2022/06/19 00:06:12;;;;;;;4.43;3.53;;;;;;;22.80;41.14;93509.78;4910026;29;20052;-92
2022/06/19 00:08:37;;;;;;;4.75;3.10;;;;;;;22.80;40.94;93515.28;4879172;29;20047;-92
2022/06/19 00:11:03;;;;;;;4.45;3.20;;;;;;;22.81;40.95;93511.25;4905947;29;20274;-92
2022/06/19 00:13:29;;;;;;;5.07;3.78;;;;;;;22.80;41.13;93512.53;4964412;28;20047;-92
2022/06/19 00:15:54;;;;;;;3.42;3.08;;;;;;;22.80;41.19;93514.53;4948234;28;20144;-92
2022/06/19 00:18:20;;;;;;;5.47;3.70;;;;;;;22.79;41.28;93502.78;4947314;28;20139;-92
2022/06/19 00:20:45;;;;;;;3.38;3.08;;;;;;;22.80;41.20;93498.00;4932448;28;20039;-93
2022/06/19 00:23:10;;;;;;;3.92;3.35;;;;;;;22.78;41.53;93493.03;4965403;28;20054;-93
2022/06/19 00:25:37;;;;;;;3.50;3.20;;;;;;;22.77;41.21;93488.03;4988885;28;20039;-92
2022/06/19 00:28:04;;;;;;;4.43;2.95;;;;;;;22.76;41.30;93497.56;4991107;28;20034;-92
2022/06/19 00:30:29;;;;;;;3.60;3.20;;;;;;;22.79;41.01;93489.00;4986675;28;20057;-92
2022/06/19 00:32:55;;;;;;;4.38;3.40;;;;;;;22.77;41.16;93482.50;4990957;28;20133;-92
2022/06/19 00:35:20;;;;;;;3.50;2.97;;;;;;;22.78;41.34;93481.25;4990809;28;20042;-92
2022/06/19 00:37:46;;;;;;;3.50;3.15;;;;;;;22.77;41.14;93479.75;4991024;28;20037;-92
2022/06/19 00:40:12;;;;;;;3.70;3.40;;;;;;;22.77;41.15;93477.75;4990873;28;20101;-92
2022/06/19 00:42:37;;;;;;;4.07;3.30;;;;;;;22.77;41.33;93475.00;4990724;28;20168;-92
2022/06/19 00:45:03;;;;;;;3.83;3.10;;;;;;;22.77;41.13;93472.25;5006806;28;20038;-92
2022/06/19 00:47:30;;;;;;;3.42;3.13;;;;;;;22.76;41.41;93464.50;4991021;28;20046;-92
2022/06/19 00:50:14;;;;;;;4.53;3.45;;;;;;;22.77;41.29;93465.97;5002754;28;20049;-93
2022/06/19 00:52:40;;;;;;;3.72;3.38;;;;;;;22.76;41.42;93462.47;5027297;28;20041;-92
2022/06/19 00:55:13;;;;;;;3.60;3.17;;;;;;;22.75;41.27;93465.78;5025861;28;20451;-92
2022/06/19 00:57:41;;;;;;;3.78;3.33;;;;;;;22.74;41.70;93456.75;5043886;28;20041;-92
2022/06/19 01:00:07;;;;;;;3.25;2.95;;;;;;;22.75;41.34;93452.00;5042249;28;20408;-92
2022/06/19 01:02:32;;;;;;;3.60;3.28;;;;;;;22.75;41.54;93455.47;5058318;28;20037;-92
2022/06/19 01:04:57;;;;;;;3.83;3.42;;;;;;;22.76;41.55;93447.97;5044200;28;20049;-92
2022/06/19 01:07:26;;;;;;;3.22;2.88;;;;;;;22.74;41.50;93447.75;5023307;28;20041;-91
2022/06/19 01:09:51;;;;;;;3.40;3.10;;;;;;;22.75;41.47;93438.94;5026890;28;20042;-92
2022/06/19 01:12:18;;;;;;;3.45;2.95;;;;;;;22.75;41.45;93443.72;5022325;28;20112;-92
2022/06/19 01:14:43;;;;;;;3.22;2.95;;;;;;;22.75;41.35;93449.22;5025036;28;20380;-92
2022/06/19 01:17:10;;;;;;;3.42;3.10;;;;;;;22.74;41.46;93442.25;5029935;28;20060;-92
2022/06/19 01:19:41;;;;;;;4.28;3.42;;;;;;;22.74;41.70;93437.47;5013421;28;20037;-92
2022/06/19 01:22:28;;;;;;;4.07;3.47;;;;;;;22.73;41.52;93432.53;5013964;28;20060;-92
2022/06/19 01:25:16;;;;;;;4.22;3.30;;;;;;;22.73;41.48;93429.78;5014220;28;20049;-92
2022/06/19 01:30:29;;;;;;;4.22;3.83;;;;;;;22.72;41.54;93420.03;5052381;28;20095;-92
2022/06/19 01:32:56;;;;;;;3.50;3.15;;;;;;;22.72;41.68;93420.03;5046873;28;20037;-92
2022/06/19 01:35:21;;;;;;;3.75;3.35;;;;;;;22.73;41.56;93422.25;5029248;28;20037;-92
2022/06/19 01:37:47;;;;;;;4.10;3.70;;;;;;;22.71;41.70;93413.03;5063897;28;20359;-92
2022/06/19 01:40:19;;;;;;;3.58;3.28;;;;;;;22.71;41.58;93399.25;5010255;28;20040;-92
2022/06/19 01:42:45;;;;;;;4.00;3.58;;;;;;;22.70;41.42;93401.25;5008838;28;20046;-92
2022/06/19 01:45:10;;;;;;;3.75;3.45;;;;;;;22.72;41.62;93403.47;5006862;28;20033;-92
2022/06/19 01:47:36;;;;;;;4.38;3.78;;;;;;;22.71;41.52;93394.47;5013976;28;20045;-92
2022/06/19 01:50:01;;;;;;;4.10;3.47;;;;;;;22.72;41.73;93400.72;5002831;28;20046;-92
2022/06/19 01:52:29;;;;;;;4.13;3.72;;;;;;;22.70;41.52;93393.00;4989373;28;20040;-92
2022/06/19 01:55:13;;;;;;;3.95;3.50;;;;;;;22.70;41.75;93390.25;4997115;28;20041;-92
2022/06/19 01:57:40;;;;;;;4.70;4.20;;;;;;;22.69;41.62;93390.78;4981762;28;20128;-92
2022/06/19 02:00:09;;;;;;;3.58;3.28;;;;;;;22.70;41.75;93393.00;4993320;28;20362;-91
2022/06/19 02:02:34;;;;;;;4.28;3.83;;;;;;;22.69;41.74;93380.50;4991736;28;20038;-92
2022/06/19 02:05:00;;;;;;;3.97;3.67;;;;;;;22.68;41.63;93386.53;4981196;28;20026;-92
2022/06/19 02:07:27;;;;;;;4.05;3.65;;;;;;;22.69;41.91;93377.75;4972425;28;20045;-93
2022/06/19 02:09:54;;;;;;;4.18;3.25;;;;;;;22.70;41.81;93379.22;4982955;28;20041;-92
2022/06/19 02:12:20;;;;;;;4.05;3.65;;;;;;;22.67;42.07;93371.28;5021899;28;20049;-92
2022/06/19 02:14:45;;;;;;;4.28;3.83;;;;;;;22.66;41.79;93370.56;5036339;28;20061;-92
2022/06/19 02:17:16;;;;;;;4.00;3.70;;;;;;;22.66;42.07;93365.03;5022537;28;20400;-92
2022/06/19 02:19:42;;;;;;;5.07;4.57;;;;;;;22.66;41.93;93358.78;5033582;28;20038;-92
2022/06/19 02:22:11;;;;;;;5.22;3.75;;;;;;;22.67;41.77;93354.75;4999277;28;20038;-92
2022/06/19 02:24:38;;;;;;;4.63;3.93;;;;;;;22.68;41.82;93351.47;5024693;28;20538;-92
2022/06/19 02:27:04;;;;;;;3.83;3.53;;;;;;;22.68;41.81;93356.25;4980150;28;20050;-92
2022/06/19 02:29:29;;;;;;;4.57;4.10;;;;;;;22.67;42.14;93352.75;4980303;28;20057;-93
2022/06/19 02:31:55;;;;;;;5.97;4.07;;;;;;;22.67;41.83;93346.50;4994847;28;20037;-92
2022/06/19 02:34:26;;;;;;;3.88;3.47;;;;;;;22.67;41.90;93352.00;5012102;28;20057;-92
2022/06/19 02:36:59;;;;;;;4.35;3.88;;;;;;;22.67;42.03;93343.75;4996499;28;20042;-92
2022/06/19 02:39:38;;;;;;;4.30;3.90;;;;;;;22.66;41.94;93348.50;5008040;28;20033;-93
2022/06/19 02:42:19;;;;;;;4.70;4.00;;;;;;;22.67;42.05;93350.00;5008540;28;20127;-92
2022/06/19 02:44:44;;;;;;;3.83;3.33;;;;;;;22.66;42.22;93343.00;5026130;28;20030;-92
2022/06/19 02:47:10;;;;;;;4.22;3.88;;;;;;;22.66;42.18;93342.25;4986652;28;20034;-92
2022/06/19 02:49:35;;;;;;;4.63;4.22;;;;;;;22.64;42.23;93322.78;4982150;28;20038;-92
2022/06/19 02:52:02;;;;;;;5.32;3.92;;;;;;;22.64;42.12;93326.25;4999655;28;20127;-92
2022/06/19 02:54:29;;;;;;;4.47;4.03;;;;;;;22.64;42.19;93317.25;4999519;28;20116;-92
2022/06/19 02:56:54;;;;;;;4.10;3.67;;;;;;;22.64;42.22;93314.50;4999267;28;20045;-92
2022/06/19 02:59:20;;;;;;;5.40;4.70;;;;;;;22.64;42.35;93318.00;4998697;28;20056;-93
2022/06/19 03:01:45;;;;;;;4.53;4.13;;;;;;;22.63;42.36;93304.75;4992408;28;20124;-92
2022/06/19 03:04:16;;;;;;;5.15;3.88;;;;;;;22.63;42.18;93293.75;4995358;28;20505;-92
2022/06/19 03:06:42;;;;;;;4.88;4.40;;;;;;;22.64;42.31;93295.22;5011579;28;20047;-92
2022/06/19 03:09:07;;;;;;;6.85;4.18;;;;;;;22.66;42.27;93289.91;5028536;28;20037;-92
2022/06/19 03:11:33;;;;;;;5.07;3.95;;;;;;;22.63;42.22;93285.47;5009082;28;20095;-93
2022/06/19 03:13:58;;;;;;;4.53;4.13;;;;;;;22.62;42.39;93284.72;5012199;28;20033;-91
2022/06/19 03:16:23;;;;;;;5.22;4.28;;;;;;;22.63;42.18;93288.22;5027163;28;20051;-93
2022/06/19 03:18:50;;;;;;;5.57;3.67;;;;;;;22.62;42.30;93287.50;5030701;28;20052;-92
2022/06/19 03:21:16;;;;;;;4.43;4.03;;;;;;;22.63;42.38;93282.72;5031364;28;20067;-92
2022/06/19 03:23:42;;;;;;;6.78;4.43;;;;;;;22.63;42.46;93282.72;5012539;28;20116;-92
2022/06/19 03:26:08;;;;;;;4.97;4.47;;;;;;;22.62;42.33;93270.97;5028047;28;20033;-93
2022/06/19 03:28:33;;;;;;;5.28;4.32;;;;;;;22.61;42.31;93274.25;5025482;28;20104;-92
2022/06/19 03:30:59;;;;;;;5.07;4.57;;;;;;;22.61;42.46;93277.75;5028497;28;20052;-92
2022/06/19 03:33:24;;;;;;;4.30;3.90;;;;;;;22.62;42.34;93270.97;4993717;28;20438;-92
2022/06/19 03:35:51;;;;;;;4.45;4.05;;;;;;;22.63;42.38;93272.44;4998541;28;20037;-91
2022/06/19 03:38:17;;;;;;;4.68;4.20;;;;;;;22.63;42.47;93272.44;5014568;28;20432;-92
2022/06/19 03:40:42;;;;;;;3.80;3.50;;;;;;;22.63;42.33;93271.69;4990051;28;20037;-92
2022/06/19 03:43:08;;;;;;;4.35;3.95;;;;;;;22.61;42.43;93272.22;5015993;28;20103;-93
2022/06/19 03:45:33;;;;;;;4.63;4.22;;;;;;;22.65;42.25;93258.84;5025352;28;20040;-92
2022/06/19 03:47:59;;;;;;;4.38;3.97;;;;;;;22.66;42.32;93257.56;5015739;28;20045;-92
2022/06/19 03:50:24;;;;;;;5.03;4.53;;;;;;;22.64;42.44;93253.88;5005899;28;20045;-92
2022/06/19 03:52:50;;;;;;;5.38;4.35;;;;;;;22.65;42.24;93255.38;4998248;28;20051;-92
2022/06/19 03:55:15;;;;;;;4.80;4.30;;;;;;;22.66;42.50;93246.56;4997606;28;20290;-92
2022/06/19 03:57:41;;;;;;;4.68;4.28;;;;;;;22.66;42.25;93243.06;5012647;28;20037;-92
2022/06/19 04:00:08;;;;;;;4.88;4.38;;;;;;;22.67;42.30;93247.28;5007939;28;20037;-92
2022/06/19 04:02:34;;;;;;;4.72;4.22;;;;;;;22.68;42.26;93243.25;5014740;28;20067;-92
2022/06/19 04:04:59;;;;;;;5.30;4.68;;;;;;;22.70;42.43;93246.94;4998360;28;20499;-92
2022/06/19 04:07:25;;;;;;;4.70;4.20;;;;;;;22.71;42.31;93250.44;4995679;28;20403;-92
2022/06/19 04:09:50;;;;;;;4.50;4.10;;;;;;;22.71;41.97;93251.19;5014745;28;20403;-93
2022/06/19 04:12:17;;;;;;;5.47;4.47;;;;;;;22.72;42.19;93243.66;4997528;28;20466;-92
2022/06/19 04:14:42;;;;;;;4.57;4.15;;;;;;;22.74;42.14;93246.56;5014281;28;20048;-92
2022/06/19 04:17:08;;;;;;;4.18;3.78;;;;;;;22.72;42.30;93230.63;5013933;28;20025;-92
2022/06/19 04:19:33;;;;;;;4.50;4.07;;;;;;;22.74;42.15;93236.28;5013835;28;20411;-92
2022/06/19 04:21:59;;;;;;;4.60;3.80;;;;;;;22.76;42.07;93241.25;5014393;28;20025;-91
2022/06/19 04:24:24;;;;;;;6.03;4.25;;;;;;;22.77;41.89;93235.25;5008953;28;20029;-92
2022/06/19 04:26:50;;;;;;;4.55;4.00;;;;;;;22.77;42.09;93226.97;4998206;28;20040;-92
2022/06/19 04:29:15;;;;;;;3.90;3.60;;;;;;;22.77;42.27;93231.72;4997469;28;20033;-92
2022/06/19 04:31:41;;;;;;;4.47;4.07;;;;;;;22.78;42.18;93228.44;5030105;28;20029;-92
2022/06/19 04:34:06;;;;;;;4.45;3.75;;;;;;;22.80;41.86;93231.41;5003510;28;20502;-91
2022/06/19 04:36:32;;;;;;;4.25;3.85;;;;;;;22.81;42.41;93235.63;5011024;28;20373;-92
2022/06/19 04:38:58;;;;;;;3.50;3.20;;;;;;;22.82;42.01;93233.63;5007888;28;20110;-92
2022/06/19 04:41:29;;;;;;;3.83;3.53;;;;;;;22.83;42.07;93226.81;5006479;28;20125;-92
2022/06/19 04:43:56;;;;;;;4.47;3.42;;;;;;;22.84;42.11;93231.78;4987185;28;20036;-92
2022/06/19 04:46:21;;;;;;;3.90;3.55;;;;;;;22.85;42.05;93229.78;4993808;28;20403;-91
2022/06/19 04:48:47;;;;;;;3.45;3.15;;;;;;;22.88;42.03;93229.44;4994482;28;20033;-92
2022/06/19 04:51:12;;;;;;;3.30;3.00;;;;;;;22.86;42.08;93220.22;4987366;28;20509;-93
2022/06/19 04:53:39;;;;;;;4.78;3.53;;;;;;;22.88;41.84;93223.16;4979319;28;20080;-92
2022/06/19 04:56:05;;;;;;;3.55;3.15;;;;;;;22.90;41.98;93209.59;4993378;28;20045;-92
2022/06/19 04:58:31;;;;;;;3.63;3.33;;;;;;;22.90;41.82;93212.34;4977970;28;20508;-92
2022/06/19 05:00:56;;;;;;;3.47;3.15;;;;;;;22.90;42.00;93207.56;5025939;28;20389;-92
2022/06/19 05:03:23;;;;;;;2.92;2.72;;;;;;;22.94;41.63;93200.97;4988726;28;20033;-92
2022/06/19 05:05:48;;;;;;;4.97;3.20;;;;;;;22.93;41.74;93205.00;5010525;28;20042;-92
2022/06/19 05:08:14;;;;;;;3.33;3.03;;;;;;;22.95;42.00;93197.63;4998392;28;20037;-92
2022/06/19 05:10:41;;;;;;;3.30;3.00;;;;;;;22.97;41.86;93197.84;5010860;28;20425;-92
2022/06/19 05:13:12;;;;;;;3.67;3.38;;;;;;;22.98;41.87;93191.03;5010328;28;20041;-92
2022/06/19 05:15:37;;;;;;;3.38;3.08;;;;;;;22.99;41.65;93200.78;5043470;28;20053;-93
2022/06/19 05:18:03;;;;;;;3.20;2.92;;;;;;;23.00;41.59;93205.00;5010363;28;20033;-92
2022/06/19 05:20:29;;;;;;;3.25;2.72;;;;;;;23.02;41.84;93202.44;5006758;28;20045;-92
2022/06/19 05:22:54;;;;;;;3.60;3.20;;;;;;;23.04;41.96;93205.41;5007208;28;20118;-92
2022/06/19 05:25:20;;;;;;;4.82;4.00;;;;;;;23.03;41.73;93206.69;5005519;28;20570;-91
2022/06/19 05:27:45;;;;;;;3.63;3.33;;;;;;;23.05;41.58;93195.84;4993131;28;20034;-92
2022/06/19 05:30:12;;;;;;;3.05;2.75;;;;;;;23.07;41.39;93192.53;5009482;28;20073;-92
2022/06/19 05:32:38;;;;;;;3.40;3.10;;;;;;;23.07;41.65;93198.81;4992768;28;20081;-92
2022/06/19 05:35:04;;;;;;;3.40;3.10;;;;;;;23.10;41.60;93200.47;4975811;28;20539;-92
2022/06/19 05:37:29;;;;;;;2.83;2.63;;;;;;;23.10;41.48;93196.97;4972985;28;20048;-92
2022/06/19 05:39:54;;;;;;;5.32;2.60;;;;;;;23.12;41.63;93197.91;4958270;28;20042;-92
2022/06/19 05:42:20;;;;;;;2.65;2.45;;;;;;;23.13;41.46;93193.13;4969458;28;20049;-92
2022/06/19 05:44:45;;;;;;;3.08;2.80;;;;;;;23.12;41.49;93180.63;4973182;28;20378;-92
2022/06/19 05:47:11;;;;;;;3.75;3.10;;;;;;;23.14;41.50;93183.56;4972806;28;20050;-92
2022/06/19 05:49:36;;;;;;;2.70;2.47;;;;;;;23.16;41.51;93178.97;4973389;28;20389;-92
2022/06/19 05:52:03;;;;;;;2.42;2.22;;;;;;;23.17;41.27;93183.19;4959104;28;20038;-92
2022/06/19 05:54:29;;;;;;;3.10;2.75;;;;;;;23.19;41.39;93175.09;4976850;28;20034;-93
2022/06/19 05:56:55;;;;;;;3.40;2.70;;;;;;;23.21;41.50;93182.84;5002995;28;20046;-92
2022/06/19 05:59:20;;;;;;;2.90;2.70;;;;;;;23.20;41.45;93173.81;4977591;28;20088;-93
2022/06/19 06:01:46;;;;;;;2.70;2.50;;;;;;;23.23;41.45;93163.72;4986629;28;20056;-93
2022/06/19 06:04:11;;;;;;;2.83;2.53;;;;;;;23.25;41.31;93169.44;4996619;28;20034;-92
2022/06/19 06:06:39;;;;;;;2.95;2.70;;;;;;;23.25;41.35;93159.13;5010945;28;20030;-92
2022/06/19 06:09:04;;;;;;;3.35;3.05;;;;;;;23.30;41.30;93151.25;5006244;28;20045;-92
2022/06/19 06:11:30;;;;;;;2.83;2.47;;;;;;;23.27;41.48;93155.81;4994071;28;20132;-92
2022/06/19 06:13:55;;;;;;;2.63;2.42;;;;;;;23.29;41.27;93158.78;4979488;28;20049;-92
2022/06/19 06:16:21;;;;;;;2.60;2.40;;;;;;;23.30;41.42;93154.72;4976737;28;20397;-92
2022/06/19 06:18:46;;;;;;;2.58;2.35;;;;;;;23.32;41.34;93152.16;4954160;28;20030;-92
2022/06/19 06:21:16;;;;;;;3.38;2.78;;;;;;;23.32;41.12;93140.41;4952254;28;20048;-93
2022/06/19 06:23:42;;;;;;;3.03;2.75;;;;;;;23.35;41.36;93147.56;4954545;28;20046;-92
2022/06/19 06:26:10;;;;;;;2.58;2.38;;;;;;;23.34;41.27;93143.34;4956117;28;20038;-92
2022/06/19 06:28:36;;;;;;;3.40;2.65;;;;;;;23.37;41.19;93139.50;4956375;28;20086;-92
2022/06/19 06:31:02;;;;;;;2.63;2.42;;;;;;;23.38;41.25;93149.25;4954525;28;20035;-93
2022/06/19 06:33:28;;;;;;;3.03;2.75;;;;;;;23.40;41.06;93144.63;4966837;28;20047;-92
2022/06/19 06:35:54;;;;;;;2.63;2.42;;;;;;;23.39;41.13;93143.13;4963872;28;20049;-92
2022/06/19 06:38:20;;;;;;;2.83;2.58;;;;;;;23.40;41.04;93150.13;4971812;28;20433;-93
2022/06/19 06:40:45;;;;;;;4.50;2.85;;;;;;;23.41;41.41;93142.59;4972635;28;20038;-93
2022/06/19 06:43:10;;;;;;;2.80;2.45;;;;;;;23.44;41.10;93150.50;4952056;28;20435;-93
2022/06/19 06:45:36;;;;;;;2.78;2.53;;;;;;;23.45;41.34;93140.94;4949128;29;20042;-92
2022/06/19 06:48:02;;;;;;;3.15;2.85;;;;;;;23.45;41.16;93145.72;4933037;29;20518;-92
2022/06/19 06:50:28;;;;;;;2.63;2.40;;;;;;;23.46;41.09;93147.94;4964387;28;20042;-92
2022/06/19 06:52:53;;;;;;;2.70;2.50;;;;;;;23.46;41.07;93147.22;4956501;28;20103;-92
2022/06/19 06:55:19;;;;;;;3.03;2.42;;;;;;;23.47;41.19;93138.38;4955772;28;20587;-92
2022/06/19 06:57:44;;;;;;;2.97;2.75;;;;;;;23.46;41.21;93136.91;4970895;28;20058;-92
2022/06/19 07:00:14;;;;;;;3.92;2.30;;;;;;;23.47;41.08;93132.13;4971667;28;20564;-92
2022/06/19 07:02:40;;;;;;;3.10;2.80;;;;;;;23.50;40.98;93125.50;4970945;28;20502;-92
2022/06/19 07:05:05;;;;;;;2.70;2.50;;;;;;;23.50;41.02;93125.50;4971315;28;20097;-92
2022/06/19 07:07:33;;;;;;;2.60;2.30;;;;;;;23.51;41.18;93122.19;4971877;28;20038;-92
2022/06/19 07:09:59;;;;;;;3.63;2.33;;;;;;;23.53;41.04;93107.88;4954581;28;20830;-93
2022/06/19 07:12:24;;;;;;;4.68;2.30;;;;;;;23.50;41.00;93112.44;4981240;28;20034;-92
2022/06/19 07:14:50;;;;;;;131.75;107.25;;;;;;;23.49;41.90;93113.00;4979105;28;20042;-93
2022/06/19 07:17:28;;;;;;;163.25;122.25;;;;;;;23.50;41.49;93108.97;5001951;28;20057;-93
2022/06/19 07:19:56;;;;;;;76.28;61.63;;;;;;;23.50;41.79;93117.97;5002616;28;20069;-93
2022/06/19 07:22:22;;;;;;;6.07;5.00;;;;;;;23.53;41.58;93113.41;5009860;28;20170;-92
2022/06/19 07:24:50;;;;;;;3.97;3.30;;;;;;;23.53;41.23;93100.34;5024865;28;20585;-92
2022/06/19 07:27:16;;;;;;;3.20;2.72;;;;;;;23.54;41.23;93101.81;4970623;28;20050;-93
2022/06/19 07:29:44;;;;;;;3.85;2.90;;;;;;;23.54;41.34;93109.34;4992391;28;20416;-93
2022/06/19 07:32:12;;;;;;;3.03;2.75;;;;;;;23.53;41.27;93108.63;5009070;28;20046;-93
2022/06/19 07:34:41;;;;;;;3.08;2.75;;;;;;;23.55;41.15;93116.34;5006688;28;20251;-93
2022/06/19 07:37:07;;;;;;;3.45;3.08;;;;;;;23.54;41.28;93114.88;4986141;28;20048;-93
2022/06/19 07:39:40;;;;;;;3.40;3.10;;;;;;;23.52;41.19;93120.19;4995496;28;20033;-93
2022/06/19 07:42:09;;;;;;;3.60;3.30;;;;;;;23.54;41.28;93123.16;4985704;28;20176;-93
2022/06/19 07:44:35;;;;;;;4.43;3.38;;;;;;;23.53;41.27;93122.41;5005902;28;20018;-92
2022/06/19 07:52:33;;;;;;;6.13;3.92;;;;;;;23.53;41.39;93141.00;4987787;28;20095;-93
2022/06/19 07:54:58;;;;;;;3.50;3.20;;;;;;;23.51;41.36;93130.47;4978928;28;20057;-93
2022/06/19 07:57:28;;;;;;;5.20;3.65;;;;;;;23.54;41.26;93129.41;4995012;28;20052;-93
2022/06/19 07:59:58;;;;;;;3.80;3.40;;;;;;;23.54;41.29;93128.66;5028198;28;20030;-93
2022/06/19 08:02:24;;;;;;;4.93;3.95;;;;;;;23.54;41.40;93131.44;4979327;28;20762;-94
2022/06/19 08:04:58;;;;;;;4.82;3.60;;;;;;;23.53;41.73;93141.00;4995932;28;20041;-93
2022/06/19 08:07:43;;;;;;;4.10;3.50;;;;;;;23.53;41.27;93127.94;4975894;28;20046;-95
2022/06/19 08:10:11;;;;;;;3.83;3.40;;;;;;;23.53;41.55;93127.19;4994248;28;20041;-93
2022/06/19 08:12:37;;;;;;;4.95;4.20;;;;;;;23.51;41.64;93111.16;4981814;28;20400;-94
2022/06/19 08:15:03;;;;;;;3.70;3.40;;;;;;;23.53;41.53;93114.13;4987880;28;20041;-93
2022/06/19 08:17:32;;;;;;;24.85;4.45;;;;;;;23.53;41.58;93110.63;4966281;28;20037;-93
2022/06/19 08:20:12;;;;;;;4.00;3.47;;;;;;;23.50;41.71;93111.72;5001920;28;20045;-93
2022/06/19 08:22:53;;;;;;;;;;;;;;;;;;;;;
2022/06/19 08:25:19;;;;;;;5.15;3.60;;;;;;;23.51;41.71;93102.88;4949461;28;20052;-93
2022/06/19 08:27:54;;;;;;;3.90;3.50;;;;;;;23.50;41.51;93103.44;4934773;28;20069;-94
2022/06/19 08:30:28;;;;;;;6.22;3.42;;;;;;;23.51;41.63;93110.44;4948270;28;20038;-93
2022/06/19 08:32:54;;;;;;;4.20;3.47;;;;;;;23.50;41.90;93111.72;4961107;28;20158;-93
2022/06/19 08:35:29;;;;;;;3.58;3.28;;;;;;;23.49;41.72;93110.97;4963219;28;20119;-93
2022/06/19 08:37:55;;;;;;;4.03;3.20;;;;;;;23.50;41.69;93109.69;4960069;28;20042;-93
2022/06/19 08:40:56;;;;;;;4.15;3.63;;;;;;;23.48;41.87;93111.53;4947864;28;20037;-94
2022/06/19 08:43:38;;;;;;;4.30;3.90;;;;;;;23.49;41.79;93107.47;4963948;28;20167;-94
2022/06/19 08:46:42;;;;;;;5.25;4.00;;;;;;;23.47;41.89;93101.78;4965585;28;20042;-94
2022/06/19 08:49:32;;;;;;;5.15;4.40;;;;;;;23.50;41.78;93101.41;4988652;28;20042;-94
2022/06/19 08:52:05;;;;;;;3.85;3.38;;;;;;;23.51;41.89;93104.91;4995578;28;20056;-93
2022/06/19 08:55:00;;;;;;;4.40;3.85;;;;;;;23.50;41.78;93100.69;4944562;28;20038;-92
2022/06/19 08:57:48;;;;;;;3.90;3.60;;;;;;;23.48;41.81;93106.00;4984861;28;20042;-93
2022/06/19 09:00:49;;;;;;;6.07;3.63;;;;;;;23.48;41.87;93108.75;5015083;28;20045;-93
2022/06/19 09:05:36;;;;;;;6.57;3.60;;;;;;;23.48;41.90;93103.97;5038565;28;20403;-92
2022/06/19 09:06:28;;;;;;;4.82;3.95;;;;;;;23.49;41.81;93104.72;5045393;28;20070;-93
2022/06/19 09:09:13;;;;;;;5.28;3.72;;;;;;;23.49;41.82;93104.72;4999437;28;20581;-93
2022/06/19 09:12:21;;;;;;;4.03;3.63;;;;;;;23.46;42.19;93105.81;5016661;28;20025;-93
2022/06/19 09:15:01;;;;;;;4.57;3.45;;;;;;;23.49;42.15;93099.19;5010185;28;20068;-92
2022/06/19 09:18:07;;;;;;;4.70;3.30;;;;;;;23.46;41.99;93098.28;5006937;28;20044;-93
2022/06/19 09:20:53;;;;;;;4.60;4.05;;;;;;;23.48;41.96;93100.50;4992821;28;20033;-93
2022/06/19 09:23:40;;;;;;;5.10;3.58;;;;;;;23.48;41.96;93097.72;5013024;28;20095;-92
2022/06/19 09:26:27;;;;;;;5.32;3.83;;;;;;;23.48;42.11;93100.50;5003831;28;20523;-93
2022/06/19 09:29:14;;;;;;;4.50;3.60;;;;;;;23.47;41.98;93099.75;5020024;28;20066;-93
2022/06/19 09:32:02;;;;;;;5.43;3.80;;;;;;;23.46;42.43;93092.75;4987717;28;20037;-93
2022/06/19 09:34:48;;;;;;;5.40;3.78;;;;;;;23.46;42.25;93098.28;5032231;28;20037;-93
2022/06/19 09:37:23;;;;;;;5.85;3.70;;;;;;;23.46;42.26;93098.28;5033015;28;20120;-93
2022/06/19 09:40:22;;;;;;;4.65;3.72;;;;;;;23.47;42.27;93099.00;5023922;28;20033;-93
2022/06/19 09:42:57;;;;;;;6.95;3.63;;;;;;;23.47;42.21;93108.03;4957712;28;20540;-93
2022/06/19 09:45:29;;;;;;;4.10;3.60;;;;;;;23.47;42.30;93101.78;4944137;28;20040;-93
2022/06/19 09:48:13;;;;;;;4.28;3.38;;;;;;;23.48;42.06;93101.22;4949269;28;20046;-93
2022/06/19 09:50:43;;;;;;;5.55;3.67;;;;;;;23.50;42.03;93092.41;4979131;28;20046;-93
2022/06/19 09:53:24;;;;;;;4.38;3.55;;;;;;;23.48;42.34;93101.22;4969088;28;20053;-93
2022/06/19 09:56:00;;;;;;;5.45;3.63;;;;;;;23.47;42.24;93090.75;4965514;28;20038;-93
2022/06/19 09:58:42;;;;;;;6.78;3.80;;;;;;;23.46;42.19;93089.28;4963553;28;20181;-93
2022/06/19 10:01:10;;;;;;;8.13;3.90;;;;;;;23.49;42.26;93091.66;4958751;28;20043;-93
2022/06/19 10:03:52;;;;;;;4.40;4.00;;;;;;;23.48;42.39;93086.69;4929797;28;20038;-93
2022/06/19 10:07:03;;;;;;;4.30;3.90;;;;;;;23.49;42.34;93080.63;4937827;28;20076;-93
2022/06/19 10:09:56;;;;;;;5.45;3.42;;;;;;;23.46;42.40;93078.97;4915456;29;20044;-93
2022/06/19 10:12:34;;;;;;;3.95;3.55;;;;;;;23.49;42.23;93080.63;4893991;29;20095;-93
2022/06/19 10:15:06;;;;;;;7.00;3.72;;;;;;;23.48;42.46;93086.69;4926803;29;20104;-93
2022/06/19 10:17:53;;;;;;;7.28;3.95;;;;;;;23.47;42.43;93083.19;4895355;29;20068;-93
2022/06/19 10:20:48;;;;;;;4.70;3.60;;;;;;;23.49;42.27;93077.13;4926455;28;20044;-93
2022/06/19 10:23:51;;;;;;;5.50;4.38;;;;;;;23.49;42.47;93082.66;4933657;28;20063;-93
2022/06/19 10:26:33;;;;;;;4.95;4.05;;;;;;;23.47;42.56;93090.75;4965042;28;20047;-93
2022/06/19 10:29:18;;;;;;;6.53;3.78;;;;;;;23.46;42.49;93095.53;4944541;28;20035;-93
2022/06/19 10:32:16;;;;;;;4.50;3.70;;;;;;;23.46;42.60;93083.75;4936061;28;20051;-93
2022/06/19 10:35:11;;;;;;;4.70;3.92;;;;;;;23.46;42.53;93076.22;4959940;28;20041;-93
2022/06/19 10:38:34;;;;;;;6.68;3.58;;;;;;;23.46;42.58;93087.25;5011914;28;20033;-93
2022/06/19 10:44:51;;;;;;;5.22;3.88;;;;;;;23.47;42.50;93080.44;5014084;28;21146;-93
2022/06/19 10:47:43;;;;;;;5.03;3.80;;;;;;;23.45;42.77;93085.78;4998313;28;20099;-93
2022/06/19 10:50:35;;;;;;;6.82;4.15;;;;;;;23.47;42.52;93082.47;5026203;22;20053;-93
2022/06/19 10:53:37;;;;;;;6.05;3.70;;;;;;;23.48;42.55;93081.19;5003543;28;20106;-93
2022/06/19 10:56:23;;;;;;;4.05;3.65;;;;;;;23.46;42.67;93067.94;5010767;28;20029;-93
2022/06/19 10:58:49;;;;;;;5.57;3.60;;;;;;;23.50;42.57;93073.09;5025600;28;20036;-94
2022/06/19 11:04:50;;;;;;;4.28;3.88;;;;;;;23.49;42.58;93069.59;4989159;28;20036;-93
2022/06/19 11:07:16;;;;;;;5.38;3.88;;;;;;;23.49;42.72;93068.84;4989933;28;20050;-94
2022/06/19 11:10:03;;;;;;;3.80;3.40;;;;;;;23.48;42.61;93064.63;4974255;28;20204;-93
2022/06/19 11:13:05;;;;;;;5.07;4.10;;;;;;;23.48;42.83;93065.34;4995640;28;20029;-93
2022/06/19 11:15:57;;;;;;;3.88;3.35;;;;;;;23.48;42.78;93065.34;4888517;29;20388;-93
2022/06/19 11:18:44;;;;;;;4.82;3.20;;;;;;;23.47;42.64;93065.91;4898046;28;20627;-93
2022/06/19 11:21:29;;;;;;;4.35;3.95;;;;;;;23.50;42.90;93060.03;4906580;29;20499;-93
2022/06/19 11:24:00;;;;;;;4.53;3.80;;;;;;;23.48;42.83;93062.59;4883777;29;20044;-93
2022/06/19 11:26:45;;;;;;;5.28;3.45;;;;;;;23.50;42.66;93054.50;4918829;29;20035;-93
2022/06/19 11:29:33;;;;;;;4.18;3.25;;;;;;;23.48;42.86;93056.34;4876588;29;20044;-93
2022/06/19 11:32:22;;;;;;;4.03;3.45;;;;;;;23.49;42.66;93061.31;4851470;29;20095;-93
2022/06/19 11:35:07;;;;;;;4.03;3.28;;;;;;;23.47;42.84;93044.56;4897363;29;20147;-93
2022/06/19 11:37:52;;;;;;;5.32;3.38;;;;;;;23.49;42.81;93044.75;4919419;28;20506;-93
2022/06/19 11:40:36;;;;;;;4.45;3.85;;;;;;;23.51;42.87;93055.97;4925897;29;20083;-93
2022/06/19 11:43:05;;;;;;;6.05;3.42;;;;;;;23.50;42.64;93049.00;4897920;29;20044;-93
2022/06/19 11:46:12;;;;;;;3.70;3.30;;;;;;;23.50;42.58;93051.75;4941466;28;20063;-93
2022/06/19 11:48:47;;;;;;;4.55;3.63;;;;;;;23.49;42.65;93041.25;4949128;28;20504;-93
2022/06/19 11:51:22;;;;;;;4.72;3.40;;;;;;;23.50;42.77;93039.97;4943900;28;20148;-94
2022/06/19 11:56:55;;;;;;;5.00;3.22;;;;;;;23.54;42.77;93043.88;4939276;28;20044;-93
2022/06/19 11:59:44;;;;;;;;;;;;;;;;;;;;;
2022/06/19 12:02:37;;;;;;;3.53;3.00;;;;;;;23.50;42.69;93042.75;4859893;29;20057;-92
2022/06/19 12:05:20;;;;;;;5.40;3.25;;;;;;;23.51;43.03;93033.19;4939389;29;20039;-92
2022/06/19 12:07:54;;;;;;;4.45;3.97;;;;;;;23.52;42.84;93029.16;4915720;29;20083;-93
2022/06/19 12:10:27;;;;;;;5.78;3.60;;;;;;;23.51;42.90;93033.91;4901078;29;20043;-93
2022/06/19 12:13:03;;;;;;;4.18;3.38;;;;;;;23.55;42.82;93026.03;4923363;29;20233;-93
2022/06/19 12:15:33;;;;;;;3.72;3.13;;;;;;;23.53;42.74;93014.81;4892448;29;20042;-93
2022/06/19 12:18:03;;;;;;;3.67;3.10;;;;;;;23.55;42.91;93014.25;4937881;28;20498;-93